Readfield, WI (54969)

2:17 AM CST on December 27, 2014 (GMT -0600)
KWILARSE2 | Change Station
CLOSE
Current Station
Personal Weather Station
Location: Lake Poygan - Town of Wolf River, WI
Elevation: 792 ft
Nearby Weather Stations
Active Advisory: Winter Weather Advisory

Elev 792 ft 44.17 °N, 88.77 °W | Updated 9 minutes ago

Fog
Fog
35.2 °F
Feels Like 35 °F
N
0.0
Wind Variable Wind from NE
Gusts 0.0 mph

Today
High -- | Low -- °F
--% Chance of Precip.
Yesterday
High -- | Low -- °F
Precip. -- in
7:29 AM 4:22 PM
Waxing Crescent, 34% visible
Pressure 29.97 in
Visibility 0.2 miles
Clouds Overcast 200 ft
Windchill 35 °F
Dew Point 35 °F
Humidity 97%
Rainfall 0.00 in
Snow Depth Not available.
UV 0.0 out of 12
Pollen .10 out of 12
Air Quality Not available.
Flu Activity Not available.
METAR KATW 270755Z AUTO 09003KT 1/4SM FG OVC002 00/00 A2997 RMK AO2

More Conditions Fewer Conditions

Pressure 29.97 in
Visibility 0.2 miles
Clouds Overcast 200 ft
Windchill 35 °F
Dew Point 35 °F
Humidity 97%
Rainfall 0.00 in
Snow Depth Not available.
UV 0.0 out of 12
Pollen .10 out of 12
Air Quality Not available.
Flu Activity Not available.
METAR KATW 270755Z AUTO 09003KT 1/4SM FG OVC002 00/00 A2997 RMK AO2

More Conditions Fewer Conditions

10-Day Weather Forecast

Almanac

Astronomy

Dec. 27, 2014 Rise Set
Actual Time
Civil Twilight
Nautical Twilight
Astronomical Twilight
Moon
Length of Visible Light
Length of Day
Tomorrow will be .
, % of the Moon is Illuminated

Today's Extremes

State Highs State Lows

Community

WunderPhotos

Upload Photos

1,780,863 photos uploaded!

WunderBlogs® & News

Nearby

Air Quality

  Air Quality AQ Index Pollutant
Not available.

Snow Depth

Station Depth Elevation

Earthquake Activity

City Distance Mag. Time & Date
Minimum magnitude displayed is 2.5.

Coastal Water Temperatures

Place Temperature

Nearby Weather Stations